Time;durP1;ratioP1;P1;durP2;ratioP2;P2;SDS_P1;SDS_P2;PMS_P1;PMS_P2;Temp;Humidity;BMP_temperature;BMP_pressure;BME280_temperature;BME280_humidity;BME280_pressure;Samples;Min_cycle;Max_cycle;Signal;HPM_P1;HPM_P2
2022/03/21 00:00:57;;;;;;;23.60;12.68;;;;;;;5.98;54.81;97869.78;4990594;28;20053;-64
2022/03/21 00:03:25;;;;;;;25.50;12.15;;;;;;;5.80;55.25;97875.06;5002755;28;20137;-64
2022/03/21 00:05:51;;;;;;;23.88;11.77;;;;;;;5.59;57.02;97879.34;5000639;28;20038;-65
2022/03/21 00:08:18;;;;;;;24.33;12.43;;;;;;;5.38;58.02;97887.91;4995617;28;20383;-65
2022/03/21 00:10:45;;;;;;;26.15;14.02;;;;;;;5.23;59.08;97880.91;5001493;28;20049;-65
2022/03/21 00:13:15;;;;;;;26.95;13.18;;;;;;;5.06;60.01;97886.94;4995609;28;20104;-65
2022/03/21 00:15:44;;;;;;;25.23;13.13;;;;;;;4.82;60.73;97897.16;4994383;28;20034;-65
2022/03/21 00:18:13;;;;;;;24.33;12.80;;;;;;;4.77;61.74;97898.06;4985257;28;20153;-64
2022/03/21 00:20:44;;;;;;;28.88;13.50;;;;;;;4.63;62.74;97891.78;4986328;28;20085;-64
2022/03/21 00:23:10;;;;;;;25.00;13.40;;;;;;;4.45;63.73;97888.84;4997835;28;20876;-65
2022/03/21 00:25:36;;;;;;;24.30;12.20;;;;;;;4.35;63.72;97899.88;5003814;28;20103;-64
2022/03/21 00:28:03;;;;;;;24.80;13.43;;;;;;;3.89;65.80;97898.69;5008059;28;20049;-66
2022/03/21 00:30:29;;;;;;;25.90;13.07;;;;;;;3.63;66.92;97892.81;4991731;28;20566;-66
2022/03/21 00:32:55;;;;;;;29.48;13.75;;;;;;;3.36;68.14;97898.84;4998806;28;20080;-65
2022/03/21 00:35:21;;;;;;;31.13;15.13;;;;;;;3.23;70.04;97895.75;4999644;28;20042;-66
2022/03/21 00:37:47;;;;;;;33.38;15.40;;;;;;;3.14;70.00;97899.41;5003908;28;20044;-64
2022/03/21 00:40:15;;;;;;;28.13;13.77;;;;;;;3.05;70.56;97897.31;4999455;28;20038;-65
2022/03/21 00:42:42;;;;;;;29.83;14.75;;;;;;;2.99;70.90;97906.59;5003911;28;20049;-65
2022/03/21 00:45:14;;;;;;;27.83;14.18;;;;;;;2.93;72.49;97906.94;4993495;28;20355;-63
2022/03/21 00:47:39;;;;;;;28.58;14.60;;;;;;;2.93;72.01;97909.63;4994048;28;20046;-64
2022/03/21 00:50:07;;;;;;;27.35;14.07;;;;;;;2.94;72.23;97906.66;4990004;28;20038;-65
2022/03/21 00:52:42;;;;;;;28.02;13.77;;;;;;;2.98;71.86;97904.16;4984332;28;20610;-65
2022/03/21 00:55:09;;;;;;;29.25;13.98;;;;;;;3.06;72.19;97903.53;4982939;28;20046;-64
2022/03/21 00:57:35;;;;;;;28.65;14.43;;;;;;;3.17;71.95;97906.91;4994898;28;20402;-62
2022/03/21 01:00:04;;;;;;;27.77;14.45;;;;;;;3.23;72.08;97908.50;4986756;28;20034;-63
2022/03/21 01:02:30;;;;;;;31.27;13.40;;;;;;;3.14;70.77;97911.03;4975003;28;20062;-62
2022/03/21 01:04:55;;;;;;;30.60;14.80;;;;;;;3.04;72.23;97917.38;4982886;28;20077;-64
2022/03/21 01:07:20;;;;;;;30.20;15.02;;;;;;;2.90;72.76;97921.84;4978845;28;20035;-64
2022/03/21 01:09:46;;;;;;;24.80;14.10;;;;;;;2.67;73.26;97920.72;4987722;28;20027;-65
2022/03/21 01:12:11;;;;;;;33.25;15.00;;;;;;;2.56;75.24;97920.00;4974866;28;20038;-65
2022/03/21 01:14:37;;;;;;;30.98;14.50;;;;;;;2.70;75.38;97914.72;4982477;28;20070;-65
2022/03/21 01:17:03;;;;;;;28.10;14.68;;;;;;;2.89;74.48;97916.72;4983771;28;20118;-64
2022/03/21 01:19:30;;;;;;;30.50;14.70;;;;;;;2.95;73.45;97920.97;4987213;28;20111;-65
2022/03/21 01:21:56;;;;;;;32.67;15.27;;;;;;;2.99;73.72;97914.72;4975250;28;20034;-65
2022/03/21 01:24:22;;;;;;;32.60;14.45;;;;;;;3.05;73.71;97918.16;4984723;28;20026;-65
2022/03/21 01:26:47;;;;;;;29.35;15.38;;;;;;;3.12;73.11;97915.91;4974383;28;20031;-64
2022/03/21 01:29:12;;;;;;;29.08;15.70;;;;;;;3.12;72.78;97924.03;4974429;28;21293;-63
2022/03/21 01:31:38;;;;;;;33.03;16.80;;;;;;;3.04;73.17;97925.50;4973840;28;20027;-64
2022/03/21 01:34:03;;;;;;;28.80;13.88;;;;;;;3.00;73.71;97927.13;4974317;28;20488;-65
2022/03/21 01:36:28;;;;;;;28.40;14.38;;;;;;;3.04;73.51;97911.97;4979639;28;20109;-65
2022/03/21 01:38:54;;;;;;;30.17;14.77;;;;;;;3.00;73.67;97912.81;4974437;28;20041;-65
2022/03/21 01:41:19;;;;;;;28.23;14.43;;;;;;;2.96;73.87;97915.28;4974159;28;20031;-65
2022/03/21 01:44:02;;;;;;;31.20;15.98;;;;;;;2.84;73.79;97917.56;4974173;28;20037;-64
2022/03/21 01:46:28;;;;;;;29.60;14.90;;;;;;;2.76;74.71;97919.00;4989671;28;20338;-63
2022/03/21 01:48:54;;;;;;;25.92;14.55;;;;;;;2.63;74.25;97917.78;4974623;28;20682;-63
2022/03/21 01:51:21;;;;;;;30.70;15.07;;;;;;;2.22;77.46;97920.03;4974080;28;20031;-64
2022/03/21 01:56:31;;;;;;;32.38;16.13;;;;;;;2.16;78.32;97918.44;4974035;28;20050;-64
2022/03/21 01:58:57;;;;;;;29.42;15.23;;;;;;;2.18;78.78;97914.38;4974015;28;20027;-65
2022/03/21 02:01:23;;;;;;;28.70;13.30;;;;;;;2.26;78.42;97919.16;4979871;28;20038;-65
2022/03/21 02:03:49;;;;;;;30.58;14.30;;;;;;;2.31;78.38;97914.81;4993921;28;20582;-65
2022/03/21 02:06:14;;;;;;;30.13;15.35;;;;;;;2.39;77.93;97914.19;4992412;28;20131;-64
2022/03/21 02:08:40;;;;;;;29.15;15.35;;;;;;;2.43;77.34;97915.25;4991108;28;20061;-64
2022/03/21 02:11:06;;;;;;;27.42;15.30;;;;;;;2.57;77.31;97916.19;4992637;28;20463;-65
2022/03/21 02:13:34;;;;;;;27.75;14.15;;;;;;;2.55;76.87;97910.25;4991342;28;20033;-64
2022/03/21 02:15:59;;;;;;;32.42;15.45;;;;;;;2.40;77.18;97918.53;4992434;28;20109;-63
2022/03/21 02:18:28;;;;;;;31.15;14.77;;;;;;;2.22;78.08;97912.72;4991254;28;20125;-65
2022/03/21 02:20:56;;;;;;;29.77;15.43;;;;;;;2.02;79.42;97919.06;4992427;28;20027;-65
2022/03/21 02:23:38;;;;;;;31.10;16.38;;;;;;;1.96;80.52;97916.69;4992938;28;20058;-66
2022/03/21 02:26:07;;;;;;;30.08;14.45;;;;;;;2.00;81.30;97920.44;4992912;28;20035;-67
2022/03/21 02:28:33;;;;;;;32.20;15.73;;;;;;;1.79;81.48;97919.78;4992790;28;20034;-66
2022/03/21 02:30:58;;;;;;;31.38;16.08;;;;;;;1.69;81.23;97916.03;4992547;28;20051;-65
2022/03/21 02:33:24;;;;;;;36.08;16.33;;;;;;;1.86;82.67;97920.28;5002788;28;20039;-65
2022/03/21 02:35:51;;;;;;;33.28;17.27;;;;;;;1.87;82.42;97920.00;4991679;28;20034;-66
2022/03/21 02:38:18;;;;;;;30.90;16.05;;;;;;;1.99;82.04;97921.53;5007350;28;20042;-65
2022/03/21 02:40:44;;;;;;;31.73;15.45;;;;;;;1.90;81.19;97929.41;5014391;28;20042;-65
2022/03/21 02:43:09;;;;;;;29.00;15.70;;;;;;;1.76;80.91;97921.13;5011310;28;20040;-64
2022/03/21 02:45:35;;;;;;;33.00;15.05;;;;;;;1.84;82.82;97925.94;5011298;28;20045;-64
2022/03/21 02:48:00;;;;;;;30.55;14.77;;;;;;;1.87;81.85;97928.09;5010195;28;20030;-64
2022/03/21 02:50:41;;;;;;;31.80;16.30;;;;;;;1.83;80.76;97929.72;4994090;28;20162;-64
2022/03/21 02:53:09;;;;;;;32.13;15.45;;;;;;;1.44;83.43;97943.97;4992099;28;20376;-65
2022/03/21 02:55:34;;;;;;;32.75;15.27;;;;;;;1.12;87.17;97944.38;4992314;28;20038;-64
2022/03/21 02:58:00;;;;;;;31.95;15.65;;;;;;;0.87;87.83;97945.25;4992397;28;20123;-64
2022/03/21 03:00:25;;;;;;;28.73;14.23;;;;;;;0.77;87.78;97940.66;4992044;28;20048;-64
2022/03/21 03:02:51;;;;;;;31.63;16.50;;;;;;;0.86;89.10;97941.72;4991774;28;20034;-64
2022/03/21 03:05:16;;;;;;;33.15;15.52;;;;;;;0.95;87.95;97947.38;4991575;28;20034;-64
2022/03/21 03:07:42;;;;;;;32.25;14.98;;;;;;;1.00;87.58;97946.56;4991607;28;20034;-64
2022/03/21 03:10:08;;;;;;;31.75;15.05;;;;;;;1.23;88.19;97948.66;4991545;28;20089;-63
2022/03/21 03:12:33;;;;;;;30.13;15.82;;;;;;;1.26;87.26;97944.56;4983408;28;20447;-64
2022/03/21 03:14:58;;;;;;;32.88;15.15;;;;;;;1.13;86.66;97948.66;4972006;28;20035;-64
2022/03/21 03:17:24;;;;;;;32.50;15.93;;;;;;;1.20;87.27;97945.69;4985848;28;20454;-64
2022/03/21 03:19:49;;;;;;;32.22;14.88;;;;;;;1.13;85.50;97948.66;4991441;28;20085;-64
2022/03/21 03:22:17;;;;;;;31.33;15.93;;;;;;;0.60;89.72;97948.25;4991112;28;20045;-64
2022/03/21 03:24:45;;;;;;;32.13;15.68;;;;;;;0.29;92.16;97954.44;4991399;28;20103;-64
2022/03/21 03:27:11;;;;;;;37.42;16.85;;;;;;;-0.05;96.48;97954.94;4974518;28;20030;-64
2022/03/21 03:29:36;;;;;;;37.95;17.02;;;;;;;-0.15;97.74;97967.56;4971907;28;20476;-63
2022/03/21 03:32:03;;;;;;;32.22;15.85;;;;;;;-0.12;98.92;97967.06;4971796;28;20480;-64
2022/03/21 03:34:33;;;;;;;36.55;17.00;;;;;;;-0.15;98.68;97971.06;4971750;28;20485;-64
2022/03/21 03:36:59;;;;;;;33.65;16.40;;;;;;;-0.14;98.79;97967.31;4973065;28;20543;-64
2022/03/21 03:39:25;;;;;;;36.20;18.67;;;;;;;-0.15;98.42;97968.38;4972182;28;20645;-64
2022/03/21 03:41:51;;;;;;;34.53;17.05;;;;;;;-0.13;98.09;97976.19;4971633;28;20110;-64
2022/03/21 03:44:17;;;;;;;32.55;16.33;;;;;;;-0.15;96.97;97972.97;4971883;28;20057;-64
2022/03/21 03:46:44;;;;;;;36.72;17.17;;;;;;;-0.13;95.78;97970.81;4971430;28;20033;-64
2022/03/21 03:49:09;;;;;;;35.97;16.67;;;;;;;-0.04;96.08;97971.91;4971906;28;20082;-65
2022/03/21 03:51:35;;;;;;;33.35;16.65;;;;;;;0.07;95.34;97984.31;4979615;28;20039;-64
2022/03/21 03:54:00;;;;;;;34.53;16.98;;;;;;;0.06;96.09;97980.00;4991036;28;20030;-65
2022/03/21 03:56:26;;;;;;;30.27;15.88;;;;;;;-0.01;95.36;97985.66;4986846;28;20042;-65
2022/03/21 03:58:51;;;;;;;37.10;16.20;;;;;;;-0.12;94.41;97988.59;4975884;28;20058;-64
2022/03/21 04:01:17;;;;;;;31.52;16.40;;;;;;;-0.13;94.08;97990.47;4975077;28;20037;-63
2022/03/21 04:03:45;;;;;;;30.92;16.50;;;;;;;-0.13;92.92;97986.97;4975512;28;20484;-65
2022/03/21 04:06:18;;;;;;;32.47;15.63;;;;;;;0.02;95.23;97994.25;4975114;28;20105;-64
2022/03/21 04:08:45;;;;;;;30.65;15.30;;;;;;;0.01;93.58;97988.09;4975572;28;20499;-64
2022/03/21 04:11:10;;;;;;;33.55;15.43;;;;;;;0.03;93.45;97991.31;4996912;28;20026;-63
2022/03/21 04:13:36;;;;;;;28.20;14.23;;;;;;;-0.05;91.68;97989.97;5008202;28;20033;-64
2022/03/21 04:16:02;;;;;;;29.75;15.40;;;;;;;-0.22;93.82;97989.38;5014473;28;20521;-65
2022/03/21 04:18:28;;;;;;;30.63;15.65;;;;;;;-0.32;94.32;97987.47;5014673;28;20030;-66
2022/03/21 04:20:53;;;;;;;33.80;16.45;;;;;;;-0.30;94.78;97990.69;5014952;28;20037;-67
2022/03/21 04:23:19;;;;;;;28.10;14.55;;;;;;;-0.32;94.79;97992.84;5009361;28;20479;-66
2022/03/21 04:25:45;;;;;;;32.95;14.77;;;;;;;-0.34;93.80;97986.91;4994488;28;20058;-64
2022/03/21 04:28:12;;;;;;;28.40;14.68;;;;;;;-0.29;94.86;97996.88;4995660;28;20670;-66
2022/03/21 04:30:38;;;;;;;30.77;15.73;;;;;;;-0.12;96.13;97997.47;5006362;28;20025;-66
2022/03/21 04:33:09;;;;;;;28.77;15.05;;;;;;;-0.12;95.05;98002.06;5014537;28;20038;-66
2022/03/21 04:35:34;;;;;;;32.65;16.75;;;;;;;-0.25;91.86;98004.19;5002736;28;20031;-64
2022/03/21 04:38:00;;;;;;;30.58;15.48;;;;;;;-0.31;92.61;98002.53;5011258;28;20397;-63
2022/03/21 04:40:26;;;;;;;32.30;16.85;;;;;;;-0.52;95.88;98012.41;5007051;28;20447;-65
2022/03/21 04:42:51;;;;;;;40.08;17.88;;;;;;;-0.65;98.53;98015.56;4998209;28;20034;-65
2022/03/21 04:45:17;;;;;;;35.85;16.60;;;;;;;-0.63;98.68;98013.41;4998297;28;20042;-65
2022/03/21 04:47:43;;;;;;;32.30;15.75;;;;;;;-0.49;98.77;98013.75;5014062;28;20026;-66
2022/03/21 04:50:09;;;;;;;33.53;16.35;;;;;;;-0.30;98.53;98016.81;5003926;28;20026;-66
2022/03/21 04:52:36;;;;;;;31.33;15.20;;;;;;;-0.12;97.12;98019.03;5008104;28;20367;-66
2022/03/21 04:55:02;;;;;;;29.90;16.45;;;;;;;-0.10;95.90;98022.25;5004198;28;20022;-63
2022/03/21 04:57:27;;;;;;;34.55;15.98;;;;;;;-0.05;95.79;98027.66;5005248;28;20022;-65
2022/03/21 04:59:55;;;;;;;30.38;16.30;;;;;;;-0.16;95.03;98026.03;4998024;28;20030;-65
2022/03/21 05:02:21;;;;;;;31.63;16.05;;;;;;;-0.07;95.92;98031.72;5004088;28;20038;-66
2022/03/21 05:04:46;;;;;;;33.92;16.33;;;;;;;-0.04;95.68;98031.16;4998519;28;20030;-66
2022/03/21 05:07:19;;;;;;;31.08;16.42;;;;;;;-0.24;94.07;98029.22;5003126;28;20503;-65
2022/03/21 05:09:44;;;;;;;35.03;16.98;;;;;;;-0.54;95.90;98033.41;5005745;28;20034;-66
2022/03/21 05:12:12;;;;;;;33.90;16.20;;;;;;;-0.88;100.00;98038.28;5002548;28;20038;-66
2022/03/21 05:14:37;;;;;;;34.65;16.90;;;;;;;-0.95;100.00;98033.16;5000996;28;20034;-66
2022/03/21 05:17:05;;;;;;;36.20;17.58;;;;;;;-1.07;100.00;98029.84;5002342;28;20026;-66
2022/03/21 05:19:34;;;;;;;36.50;17.90;;;;;;;-1.21;100.00;98032.97;4992764;28;20030;-66
2022/03/21 05:22:06;;;;;;;39.42;18.13;;;;;;;-1.17;100.00;98035.94;5002270;28;20034;-66
2022/03/21 05:35:52;;;;;;;33.95;17.98;;;;;;;-0.33;100.00;98042.38;4993650;28;20038;-66
2022/03/21 05:38:17;;;;;;;37.15;18.92;;;;;;;0.06;98.49;98041.16;5001583;28;20406;-66
2022/03/21 05:40:43;;;;;;;36.25;16.92;;;;;;;0.07;98.46;98046.28;5000262;28;20035;-63
2022/03/21 05:43:08;;;;;;;33.47;17.67;;;;;;;0.17;97.84;98051.69;4998730;28;20403;-65
2022/03/21 05:45:33;;;;;;;32.75;16.52;;;;;;;0.32;96.71;98045.53;5004757;28;20054;-66
2022/03/21 05:50:43;;;;;;;34.45;16.83;;;;;;;0.71;93.83;98058.50;4993552;28;20489;-64
2022/03/21 05:53:09;;;;;;;32.85;16.83;;;;;;;0.87;93.37;98058.53;5001714;28;20038;-67
2022/03/21 05:55:35;;;;;;;38.22;17.25;;;;;;;1.03;91.38;98065.53;4992479;28;20034;-64
2022/03/21 05:58:01;;;;;;;32.30;15.43;;;;;;;1.17;90.55;98054.19;5000622;28;20026;-61
2022/03/21 06:00:27;;;;;;;30.63;16.15;;;;;;;1.13;88.25;98059.31;5002945;28;20562;-66
2022/03/21 06:02:53;;;;;;;28.33;14.27;;;;;;;1.22;88.71;98054.97;5001745;28;20478;-66
2022/03/21 06:05:20;;;;;;;30.98;16.17;;;;;;;1.53;88.02;98063.84;5004261;28;20046;-66
2022/03/21 06:07:46;;;;;;;31.88;15.88;;;;;;;1.85;85.17;98059.94;5009239;28;20392;-66
2022/03/21 06:10:13;;;;;;;30.60;15.57;;;;;;;2.10;84.03;98064.41;5009448;28;20117;-66
2022/03/21 06:12:40;;;;;;;26.70;14.68;;;;;;;2.38;81.78;98064.81;4993590;28;20447;-67
2022/03/21 06:15:06;;;;;;;33.70;17.38;;;;;;;2.59;80.60;98064.69;4996237;28;20343;-66
2022/03/21 06:17:43;;;;;;;36.08;16.98;;;;;;;2.81;80.63;98062.38;5000758;28;20040;-66
2022/03/21 06:20:09;;;;;;;34.40;17.30;;;;;;;3.09;77.44;98067.28;5003280;28;20034;-67
2022/03/21 06:22:35;;;;;;;32.35;15.85;;;;;;;3.29;76.97;98071.69;4999906;28;20031;-64
2022/03/21 06:25:01;;;;;;;31.13;15.70;;;;;;;3.50;75.59;98073.13;5009272;28;20506;-65
2022/03/21 06:27:26;;;;;;;27.23;14.63;;;;;;;3.78;73.63;98079.59;5012815;28;20161;-66
2022/03/21 06:29:52;;;;;;;30.90;14.32;;;;;;;4.13;72.24;98077.53;5003748;28;20023;-64
2022/03/21 06:32:17;;;;;;;30.60;14.80;;;;;;;4.06;70.53;98089.84;5002875;28;20432;-65
2022/03/21 06:34:42;;;;;;;28.80;14.45;;;;;;;4.00;71.89;98089.91;4998090;28;20034;-64
2022/03/21 06:37:08;;;;;;;28.05;13.88;;;;;;;4.59;71.60;98085.06;5004438;28;20032;-65
2022/03/21 06:39:34;;;;;;;26.55;13.68;;;;;;;5.26;67.79;98091.38;5012039;28;20410;-65
2022/03/21 06:41:59;;;;;;;27.02;14.13;;;;;;;5.12;66.84;98091.34;5012219;28;20026;-64
2022/03/21 06:44:25;;;;;;;27.83;15.57;;;;;;;5.40;66.08;98099.56;4996957;28;20099;-65
2022/03/21 06:46:50;;;;;;;26.80;14.52;;;;;;;5.47;63.71;98095.34;5000285;28;20026;-65
2022/03/21 06:49:15;;;;;;;27.65;15.18;;;;;;;5.48;66.20;98098.88;5002798;28;20479;-65
2022/03/21 06:51:41;;;;;;;31.83;15.02;;;;;;;6.36;64.37;98100.75;4996383;28;20040;-64
2022/03/21 06:54:06;;;;;;;31.88;13.95;;;;;;;7.01;60.87;98099.56;5006857;28;20030;-65
2022/03/21 06:56:32;;;;;;;28.35;15.05;;;;;;;7.58;58.56;98101.69;5020684;28;20133;-65
2022/03/21 06:58:58;;;;;;;45.53;23.80;;;;;;;7.94;57.29;98106.19;4998874;28;20079;-64
2022/03/21 07:01:23;;;;;;;31.92;15.60;;;;;;;8.31;54.52;98113.06;4993165;28;20032;-64
2022/03/21 07:03:49;;;;;;;25.27;14.50;;;;;;;8.57;55.06;98106.88;5003225;28;20037;-66
2022/03/21 07:06:14;;;;;;;35.35;23.45;;;;;;;7.50;57.50;98114.16;5000365;28;20099;-65
2022/03/21 07:08:39;;;;;;;38.00;24.33;;;;;;;5.33;65.50;98110.78;5000042;28;20026;-65
2022/03/21 07:11:05;;;;;;;32.00;16.95;;;;;;;5.62;67.37;98117.91;5008926;28;20028;-65
2022/03/21 07:13:30;;;;;;;30.23;17.00;;;;;;;5.27;68.33;98117.44;4998881;28;20138;-65
2022/03/21 07:15:56;;;;;;;32.00;15.65;;;;;;;6.51;64.78;98114.81;4999722;28;20100;-65
2022/03/21 07:18:22;;;;;;;29.85;15.10;;;;;;;5.10;67.50;98123.41;4990308;28;20038;-64
2022/03/21 07:20:47;;;;;;;34.53;17.08;;;;;;;4.92;71.84;98123.13;4999538;28;20054;-65
2022/03/21 07:23:13;;;;;;;33.72;20.30;;;;;;;6.47;65.72;98121.19;4995004;28;20034;-65
2022/03/21 07:25:38;;;;;;;27.10;17.10;;;;;;;6.04;65.72;98125.03;4998897;28;20060;-64
2022/03/21 07:28:04;;;;;;;29.45;16.55;;;;;;;5.66;65.32;98130.63;5006403;28;20075;-65
2022/03/21 07:30:29;;;;;;;30.52;16.85;;;;;;;6.34;64.41;98132.88;5002586;28;20049;-65
2022/03/21 07:32:55;;;;;;;46.25;26.50;;;;;;;6.60;63.39;98128.53;5014040;28;20449;-66
2022/03/21 07:35:21;;;;;;;38.88;22.25;;;;;;;7.85;60.64;98128.81;5004069;28;20435;-66
2022/03/21 07:37:54;;;;;;;30.25;17.13;;;;;;;9.86;52.22;98128.19;4996581;28;20483;-65
2022/03/21 07:40:20;;;;;;;32.95;16.30;;;;;;;9.88;51.53;98134.94;4993298;28;20053;-64
2022/03/21 07:42:46;;;;;;;27.67;14.90;;;;;;;9.36;52.67;98137.78;5002503;28;20470;-65
2022/03/21 07:47:59;;;;;;;34.35;20.92;;;;;;;9.01;54.38;98135.06;4993537;28;20042;-66
2022/03/21 07:50:25;;;;;;;25.55;15.23;;;;;;;10.47;49.97;98130.69;4999066;28;20037;-66
2022/03/21 07:52:52;;;;;;;25.40;14.63;;;;;;;11.12;47.63;98130.41;4985278;28;20039;-65
2022/03/21 07:55:17;;;;;;;25.95;14.27;;;;;;;11.46;46.82;98135.59;4973109;28;20153;-67
2022/03/21 07:57:43;;;;;;;23.77;13.98;;;;;;;10.70;47.96;98133.94;4988337;28;20545;-66
2022/03/21 08:00:09;;;;;;;26.15;15.60;;;;;;;10.43;48.70;98127.81;4992977;28;20084;-66
2022/03/21 08:02:35;;;;;;;26.65;14.57;;;;;;;10.37;49.13;98134.63;5000261;28;20045;-65
2022/03/21 08:05:01;;;;;;;25.98;14.45;;;;;;;12.74;44.08;98129.25;5000486;28;20046;-65
2022/03/21 08:07:27;;;;;;;24.75;13.30;;;;;;;13.32;42.32;98125.47;4986253;28;20050;-65
2022/03/21 08:09:52;;;;;;;23.42;15.07;;;;;;;13.63;40.68;98130.28;4992303;28;20040;-66
2022/03/21 08:12:18;;;;;;;24.52;14.38;;;;;;;14.86;39.03;98136.84;4994976;28;20069;-64
2022/03/21 08:14:43;;;;;;;22.80;13.85;;;;;;;15.12;37.44;98127.94;5000014;28;20046;-65
2022/03/21 08:17:09;;;;;;;25.13;13.55;;;;;;;15.43;37.52;98128.97;4991648;28;20042;-66
2022/03/21 08:19:35;;;;;;;26.38;14.25;;;;;;;15.84;36.93;98126.63;4992189;28;20092;-65
2022/03/21 08:22:01;;;;;;;22.77;13.57;;;;;;;15.81;36.77;98130.13;4992675;28;20050;-66
2022/03/21 08:24:28;;;;;;;24.25;14.95;;;;;;;14.16;39.28;98130.06;4982933;28;20045;-65
2022/03/21 08:26:54;;;;;;;25.35;14.45;;;;;;;14.43;39.01;98133.88;4979140;28;20039;-65
2022/03/21 08:29:19;;;;;;;23.90;14.63;;;;;;;14.28;38.64;98135.47;4983290;28;20108;-66
2022/03/21 08:31:45;;;;;;;23.95;13.80;;;;;;;15.37;37.23;98136.75;4995175;28;20046;-66
2022/03/21 08:34:10;;;;;;;25.52;14.88;;;;;;;12.71;40.70;98129.94;4986022;28;20112;-65
2022/03/21 08:36:36;;;;;;;23.60;13.63;;;;;;;11.62;44.08;98129.47;4993154;28;20034;-65
2022/03/21 08:39:02;;;;;;;25.45;14.20;;;;;;;13.17;41.08;98129.72;4988068;28;20052;-66
2022/03/21 08:41:28;;;;;;;25.05;15.15;;;;;;;14.14;38.72;98138.66;4999037;28;20057;-66
2022/03/21 08:43:53;;;;;;;23.75;14.85;;;;;;;10.04;47.49;98137.94;5003903;28;20046;-66
2022/03/21 08:46:21;;;;;;;27.95;14.57;;;;;;;11.72;45.83;98131.81;4997771;28;20041;-66
2022/03/21 08:51:32;;;;;;;26.58;15.10;;;;;;;13.01;42.34;98122.19;4988329;28;20046;-65
2022/03/21 08:53:57;;;;;;;21.65;13.02;;;;;;;14.13;37.97;98116.97;5003698;28;20041;-64
2022/03/21 08:56:23;;;;;;;23.42;14.43;;;;;;;12.19;43.26;98114.97;4998815;28;20807;-65
2022/03/21 08:58:48;;;;;;;23.55;13.30;;;;;;;12.62;43.10;98118.25;5002206;28;20045;-66
2022/03/21 09:01:14;;;;;;;24.38;13.57;;;;;;;14.21;39.11;98118.78;4986304;28;20117;-65
2022/03/21 09:03:40;;;;;;;25.30;14.38;;;;;;;14.33;39.10;98126.13;4992944;28;20113;-66
2022/03/21 09:06:05;;;;;;;25.20;13.85;;;;;;;14.67;37.78;98119.09;4978725;28;21728;-66
2022/03/21 09:08:31;;;;;;;21.25;13.35;;;;;;;14.58;38.38;98120.44;4994639;28;20046;-65
2022/03/21 09:10:56;;;;;;;23.63;14.73;;;;;;;12.15;43.17;98114.03;4983687;28;20042;-66
2022/03/21 09:13:23;;;;;;;23.70;14.75;;;;;;;10.78;46.95;98118.56;4978412;28;20540;-66
2022/03/21 09:15:48;;;;;;;25.77;14.35;;;;;;;10.79;47.60;98118.25;4982900;28;20039;-66
2022/03/21 09:18:14;;;;;;;27.75;14.35;;;;;;;10.37;47.44;98120.94;4977299;28;20593;-66
2022/03/21 09:20:39;;;;;;;26.10;14.23;;;;;;;11.33;47.68;98112.00;4982734;28;20073;-65
2022/03/21 09:23:05;;;;;;;25.60;14.30;;;;;;;13.44;41.11;98114.41;4979000;28;20053;-72
2022/03/21 09:25:30;;;;;;;24.40;13.55;;;;;;;14.59;38.83;98108.28;4982738;28;20038;-66
2022/03/21 09:27:56;;;;;;;24.98;14.52;;;;;;;13.06;40.98;98103.88;4990740;28;20084;-65
2022/03/21 09:30:21;;;;;;;25.83;13.73;;;;;;;12.97;41.19;98106.75;4985838;28;20490;-66
2022/03/21 09:32:47;;;;;;;25.00;14.52;;;;;;;12.20;43.80;98107.53;4976482;28;20074;-66
2022/03/21 09:35:13;;;;;;;24.60;14.80;;;;;;;11.72;44.73;98106.28;4979125;28;20054;-67
2022/03/21 09:37:39;;;;;;;26.05;15.07;;;;;;;10.41;47.77;98108.16;4994581;28;20046;-66
2022/03/21 09:40:06;;;;;;;27.50;15.75;;;;;;;10.81;47.45;98106.94;4991131;28;20047;-66
2022/03/21 09:42:36;;;;;;;31.35;17.33;;;;;;;13.27;41.71;98100.91;4982859;28;20085;-66
2022/03/21 09:45:03;;;;;;;52.88;26.77;;;;;;;14.27;38.25;98100.78;4984005;28;20050;-67
2022/03/21 09:50:14;;;;;;;44.20;22.23;;;;;;;14.34;38.46;98094.66;4989867;28;20053;-68
2022/03/21 09:52:41;;;;;;;30.50;16.90;;;;;;;15.32;36.34;98081.81;4996153;28;20042;-66
2022/03/21 09:55:08;;;;;;;26.55;14.43;;;;;;;14.64;37.97;98085.91;4997805;28;20042;-66
2022/03/21 09:57:34;;;;;;;23.27;14.75;;;;;;;15.80;36.22;98087.09;4993123;28;20052;-66
2022/03/21 10:00:00;;;;;;;28.90;15.73;;;;;;;16.59;36.55;98080.88;4999011;28;20073;-66
2022/03/21 10:02:26;;;;;;;27.63;16.13;;;;;;;16.68;38.54;98072.31;4997156;28;20073;-65
2022/03/21 10:04:52;;;;;;;25.52;15.20;;;;;;;15.58;39.89;98080.38;4991859;28;20132;-66
2022/03/21 10:07:25;;;;;;;27.98;15.48;;;;;;;16.21;39.18;98079.91;4987170;28;20045;-66
2022/03/21 10:10:16;;;;;;;28.20;15.10;;;;;;;16.61;36.38;98077.75;4983513;28;20141;-67
2022/03/21 10:12:42;;;;;;;24.08;15.18;;;;;;;16.27;39.03;98071.31;4981980;28;20043;-66
2022/03/21 10:15:10;;;;;;;26.80;14.63;;;;;;;15.76;40.23;98070.47;4977604;28;20069;-66
2022/03/21 10:17:36;;;;;;;28.20;15.18;;;;;;;16.15;39.24;98067.56;4981480;28;20046;-66
2022/03/21 10:20:02;;;;;;;25.60;15.00;;;;;;;16.43;38.16;98074.72;4989605;28;20124;-67
2022/03/21 10:22:37;;;;;;;26.90;15.02;;;;;;;15.47;39.86;98075.44;4981002;28;20053;-66
2022/03/21 10:25:19;;;;;;;31.27;15.43;;;;;;;15.74;39.92;98066.44;4981426;28;20391;-64
2022/03/21 10:27:47;;;;;;;25.05;14.48;;;;;;;16.58;38.07;98064.66;4981703;28;20136;-69
2022/03/21 10:30:18;;;;;;;26.25;14.93;;;;;;;16.41;38.17;98064.00;4982016;28;20439;-67
2022/03/21 10:32:46;;;;;;;28.08;16.10;;;;;;;15.80;38.16;98062.25;4988242;28;20042;-68
2022/03/21 10:35:16;;;;;;;24.23;14.75;;;;;;;16.33;38.75;98053.22;4979042;28;20096;-67
2022/03/21 10:37:42;;;;;;;26.13;15.15;;;;;;;15.97;38.08;98059.00;4992750;28;20052;-68
2022/03/21 10:40:16;;;;;;;26.20;15.73;;;;;;;16.04;39.05;98059.09;4985189;28;20389;-68
2022/03/21 10:43:03;;;;;;;25.98;15.90;;;;;;;16.06;39.22;98050.41;4981054;28;20050;-67
2022/03/21 10:45:47;;;;;;;28.65;16.35;;;;;;;15.77;40.13;98054.69;4977526;28;20137;-68
2022/03/21 10:48:14;;;;;;;27.25;16.13;;;;;;;15.18;40.79;98040.97;4977310;28;20133;-67
2022/03/21 10:50:43;;;;;;;24.35;15.45;;;;;;;15.43;40.15;98046.16;4980943;28;20046;-68
2022/03/21 10:53:14;;;;;;;28.45;16.95;;;;;;;15.64;39.63;98042.97;4986030;28;20042;-67
2022/03/21 10:55:58;;;;;;;28.40;15.57;;;;;;;15.60;39.69;98047.66;4988856;28;20096;-66
2022/03/21 10:58:34;;;;;;;26.73;16.02;;;;;;;15.94;39.45;98043.13;4979612;28;20089;-66
2022/03/21 11:01:29;;;;;;;27.02;16.23;;;;;;;15.54;39.71;98038.88;4993881;28;20058;-66
2022/03/21 11:03:59;;;;;;;25.45;15.98;;;;;;;15.51;40.53;98036.84;4972768;28;20077;-66
2022/03/21 11:06:27;;;;;;;24.40;15.73;;;;;;;15.24;40.72;98033.97;4976040;28;20048;-66
2022/03/21 11:08:54;;;;;;;29.23;17.00;;;;;;;15.24;40.83;98028.44;4989580;28;20137;-66
2022/03/21 11:11:20;;;;;;;28.83;16.08;;;;;;;15.39;39.55;98028.72;4995349;28;20132;-64
2022/03/21 11:13:46;;;;;;;35.45;17.08;;;;;;;15.75;38.23;98029.41;4986339;28;20041;-65
2022/03/21 11:16:15;;;;;;;32.30;19.05;;;;;;;15.94;37.93;98029.31;4976267;28;20047;-66
2022/03/21 11:18:41;;;;;;;33.57;17.87;;;;;;;15.89;37.44;98021.34;4986231;28;20046;-65
2022/03/21 11:21:11;;;;;;;33.78;19.77;;;;;;;15.98;37.89;98019.13;4988014;28;20410;-66
2022/03/21 11:23:36;;;;;;;30.25;16.40;;;;;;;15.80;38.68;98013.31;5000474;28;20094;-67
2022/03/21 11:26:14;;;;;;;27.92;16.23;;;;;;;15.23;39.59;98015.84;4999436;28;20041;-65
2022/03/21 11:28:39;;;;;;;31.92;17.38;;;;;;;15.85;38.92;98023.25;4984373;28;20050;-66
2022/03/21 11:31:31;;;;;;;31.85;16.80;;;;;;;15.66;38.35;98021.31;4979355;28;20561;-66
2022/03/21 11:34:18;;;;;;;31.58;16.67;;;;;;;15.64;39.04;98004.31;4989475;28;20518;-65
2022/03/21 11:36:53;;;;;;;30.40;17.05;;;;;;;15.46;39.18;98012.28;4975983;28;20054;-65
2022/03/21 11:39:19;;;;;;;29.25;17.45;;;;;;;15.57;38.95;98007.75;4972264;28;20060;-65
2022/03/21 11:42:10;;;;;;;34.53;18.42;;;;;;;15.83;38.20;98004.28;4980293;28;20511;-64
2022/03/21 11:44:37;;;;;;;29.10;17.23;;;;;;;14.86;38.72;97999.72;4980326;28;20046;-65
2022/03/21 11:47:23;;;;;;;27.58;16.33;;;;;;;15.20;38.60;97999.22;4978826;28;20125;-65